createdAt,value
2022-12-11T00:01:28.779Z,100634.75
2022-12-11T00:04:02.158Z,100640.72
2022-12-11T00:06:34.428Z,100633.84
2022-12-11T00:09:06.308Z,100646.91
2022-12-11T00:11:37.086Z,100640.94
2022-12-11T00:14:06.048Z,100640.75
2022-12-11T00:16:35.977Z,100638.97
2022-12-11T00:19:11.787Z,100633.63
2022-12-11T00:21:44.215Z,100624.00
2022-12-11T00:24:19.057Z,100626.59
2022-12-11T00:26:48.019Z,100630.94
2022-12-11T00:29:24.917Z,100624.75
2022-12-11T00:31:54.011Z,100625.44
2022-12-11T00:34:32.959Z,100615.81
2022-12-11T00:37:10.287Z,100624.38
2022-12-11T00:39:40.313Z,100632.97
2022-12-11T00:42:10.283Z,100632.00
2022-12-11T00:44:38.967Z,100639.66
2022-12-11T00:47:07.667Z,100637.78
2022-12-11T00:49:36.499Z,100634.44
2022-12-11T00:52:05.178Z,100631.31
2022-12-11T00:54:36.155Z,100636.69
2022-12-11T00:57:04.947Z,100635.16
2022-12-11T00:59:33.797Z,100636.06
2022-12-11T01:02:03.409Z,100643.16
2022-12-11T01:04:31.946Z,100646.63
2022-12-11T01:07:00.715Z,100640.66
2022-12-11T01:09:46.418Z,100642.41
2022-12-11T01:12:16.489Z,100632.91
2022-12-11T01:14:44.970Z,100634.66
2022-12-11T01:17:29.568Z,100624.28
2022-12-11T01:19:58.336Z,100623.41
2022-12-11T01:22:27.081Z,100620.81
2022-12-11T01:25:14.328Z,100620.81
2022-12-11T01:27:44.534Z,100616.50
2022-12-11T01:30:14.865Z,100625.97
2022-12-11T01:32:43.356Z,100628.66
2022-12-11T01:35:14.608Z,100621.72
2022-12-11T01:37:43.807Z,100625.16
2022-12-11T01:40:16.258Z,100621.69
2022-12-11T01:42:47.379Z,100619.09
2022-12-11T01:45:32.256Z,100614.78
2022-12-11T01:51:31.136Z,100611.34
2022-12-11T01:54:03.547Z,100616.50
2022-12-11T01:56:36.394Z,100613.94
2022-12-11T01:59:09.809Z,100616.69
2022-12-11T02:01:42.631Z,100603.94
2022-12-11T02:04:12.166Z,100596.28
2022-12-11T02:06:43.697Z,100600.72
2022-12-11T02:09:15.387Z,100598.28
2022-12-11T02:11:54.818Z,100590.56
2022-12-11T02:14:35.366Z,100595.78
2022-12-11T02:17:12.737Z,100600.09
2022-12-11T02:19:53.938Z,100604.44
2022-12-11T02:22:39.908Z,100605.28
2022-12-11T02:25:19.929Z,100619.81
2022-12-11T02:27:57.150Z,100628.38
2022-12-11T02:30:27.597Z,100638.72
2022-12-11T02:32:58.610Z,100638.56
2022-12-11T02:35:32.918Z,100641.94
2022-12-11T02:38:09.841Z,100640.16
2022-12-11T02:40:43.277Z,100634.97
2022-12-11T02:43:16.164Z,100636.75
2022-12-11T02:45:48.595Z,100639.28
2022-12-11T02:48:19.587Z,100636.75
2022-12-11T02:50:50.677Z,100631.56
2022-12-11T02:53:23.177Z,100635.91
2022-12-11T02:55:58.809Z,100628.13
2022-12-11T02:58:31.621Z,100622.19
2022-12-11T03:01:02.151Z,100626.59
2022-12-11T03:03:31.763Z,100617.13
2022-12-11T03:06:00.334Z,100611.81
2022-12-11T03:08:28.920Z,100605.81
2022-12-11T03:10:57.566Z,100603.31
2022-12-11T03:13:26.266Z,100606.88
2022-12-11T03:16:08.102Z,100607.03
2022-12-11T03:18:43.960Z,100613.09
2022-12-11T03:21:20.137Z,100611.34
2022-12-11T03:23:53.963Z,100622.47
2022-12-11T03:26:24.636Z,100618.13
2022-12-11T03:28:59.969Z,100614.59
2022-12-11T03:31:37.108Z,100618.06
2022-12-11T03:34:17.797Z,100617.28
2022-12-11T03:36:51.727Z,100616.53
2022-12-11T03:39:28.300Z,100616.53
2022-12-11T03:41:58.732Z,100608.72
2022-12-11T03:44:30.157Z,100611.31
2022-12-11T03:47:03.548Z,100613.91
2022-12-11T03:49:37.216Z,100613.06
2022-12-11T03:52:07.878Z,100620.78
2022-12-11T03:54:37.467Z,100615.53
2022-12-11T03:57:07.814Z,100619.88
2022-12-11T03:59:36.547Z,100624.03
2022-12-11T04:02:11.392Z,100624.91
2022-12-11T04:04:41.620Z,100627.53
2022-12-11T04:07:10.959Z,100612.84
2022-12-11T04:09:39.547Z,100614.59
2022-12-11T04:12:09.317Z,100620.72
2022-12-11T04:14:55.247Z,100613.22
2022-12-11T04:17:43.037Z,100612.69
2022-12-11T04:20:30.797Z,100608.56
2022-12-11T04:23:16.781Z,100617.25
2022-12-11T04:25:45.384Z,100618.16
2022-12-11T04:28:14.147Z,100618.09
2022-12-11T04:30:50.315Z,100627.56
2022-12-11T04:33:20.591Z,100618.16
2022-12-11T04:35:49.516Z,100618.88
2022-12-11T04:38:18.544Z,100612.69
2022-12-11T04:40:46.928Z,100605.75
2022-12-11T04:43:15.569Z,100612.69
2022-12-11T04:45:44.214Z,100606.59
2022-12-11T04:48:14.077Z,100601.53
2022-12-11T04:50:44.027Z,100595.50
2022-12-11T04:53:12.607Z,100585.28
2022-12-11T04:55:41.262Z,100592.38
2022-12-11T04:58:09.788Z,100589.94
2022-12-11T05:00:38.368Z,100585.75
2022-12-11T05:03:06.824Z,100581.56
2022-12-11T05:05:35.688Z,100591.13
2022-12-11T05:08:06.557Z,100589.38
2022-12-11T05:10:35.206Z,100588.53
2022-12-11T05:13:03.808Z,100587.78
2022-12-11T05:15:32.468Z,100595.72
2022-12-11T05:18:01.345Z,100597.53
2022-12-11T05:20:29.846Z,100603.69
2022-12-11T05:22:58.388Z,100593.31
2022-12-11T05:25:28.457Z,100588.97
2022-12-11T05:27:57.275Z,100601.94
2022-12-11T05:30:25.976Z,100597.66
2022-12-11T05:32:54.599Z,100598.50
2022-12-11T05:35:23.626Z,100595.06
2022-12-11T05:37:52.401Z,100595.06
2022-12-11T05:40:20.938Z,100601.09
2022-12-11T05:42:52.066Z,100602.88
2022-12-11T05:45:20.841Z,100599.41
2022-12-11T05:47:49.578Z,100595.81
2022-12-11T05:50:18.337Z,100590.63
2022-12-11T05:52:46.856Z,100595.81
2022-12-11T05:55:15.886Z,100597.44
2022-12-11T05:57:44.871Z,100604.31
2022-12-11T06:00:15.417Z,100597.50
2022-12-11T06:02:44.152Z,100595.72
2022-12-11T06:05:13.366Z,100588.78
2022-12-11T06:07:42.137Z,100601.78
2022-12-11T06:10:12.167Z,100601.84
2022-12-11T06:12:41.257Z,100602.72
2022-12-11T06:15:10.939Z,100611.38
2022-12-11T06:17:41.965Z,100613.72
2022-12-11T06:20:11.267Z,100615.25
2022-12-11T06:22:39.999Z,100613.56
2022-12-11T06:25:09.907Z,100614.47
2022-12-11T06:27:38.944Z,100625.69
2022-12-11T06:30:09.107Z,100620.50
2022-12-11T06:32:37.697Z,100617.16
2022-12-11T06:35:09.246Z,100630.97
2022-12-11T06:37:40.576Z,100634.38
2022-12-11T06:40:12.016Z,100627.44
2022-12-11T06:42:40.585Z,100635.28
2022-12-11T06:45:10.771Z,100628.47
2022-12-11T06:47:39.817Z,100618.13
2022-12-11T06:50:11.835Z,100610.50
2022-12-11T06:52:40.567Z,100608.88
2022-12-11T06:55:10.513Z,100608.94
2022-12-11T06:57:39.418Z,100603.00
2022-12-11T07:00:09.589Z,100603.13
2022-12-11T07:02:38.207Z,100598.84
2022-12-11T07:05:08.006Z,100605.00
2022-12-11T07:07:38.368Z,100605.03
2022-12-11T07:10:08.705Z,100608.47
2022-12-11T07:12:38.307Z,100610.25
2022-12-11T07:15:07.706Z,100608.53
2022-12-11T07:17:37.406Z,100606.00
2022-12-11T07:20:07.246Z,100599.97
2022-12-11T07:22:35.771Z,100597.38
2022-12-11T07:25:06.260Z,100600.03
2022-12-11T07:27:34.949Z,100608.66
2022-12-11T07:30:03.737Z,100612.16
2022-12-11T07:32:32.464Z,100612.94
2022-12-11T07:35:01.193Z,100615.59
2022-12-11T07:37:29.798Z,100611.19
2022-12-11T07:39:58.329Z,100606.00
2022-12-11T07:42:29.870Z,100610.31
2022-12-11T07:44:58.399Z,100608.59
2022-12-11T07:47:26.985Z,100610.41
2022-12-11T07:49:55.644Z,100612.84
2022-12-11T07:52:26.701Z,100613.69
2022-12-11T07:55:00.007Z,100622.19
2022-12-11T07:57:53.499Z,100633.25
2022-12-11T08:00:32.422Z,100641.03
2022-12-11T08:03:05.808Z,100635.97
2022-12-11T08:05:41.678Z,100632.56
2022-12-11T08:08:16.885Z,100626.47
2022-12-11T08:10:47.941Z,100626.53
2022-12-11T08:13:32.299Z,100628.28
2022-12-11T08:19:34.670Z,100631.66
2022-12-11T08:22:22.780Z,100632.56
2022-12-11T08:25:47.082Z,100637.72
2022-12-11T08:29:00.837Z,100646.34
2022-12-11T08:31:37.067Z,100645.50
2022-12-11T08:34:16.200Z,100642.00
2022-12-11T08:36:47.365Z,100650.69
2022-12-11T08:39:31.522Z,100653.22
2022-12-11T08:42:15.968Z,100648.09
2022-12-11T08:45:06.545Z,100652.38
2022-12-11T08:47:56.548Z,100650.69
2022-12-11T08:50:32.618Z,100653.22
2022-12-11T08:53:11.598Z,100654.06
2022-12-11T08:55:56.429Z,100645.56
2022-12-11T08:58:30.098Z,100650.69
2022-12-11T09:01:12.816Z,100651.47
2022-12-11T09:04:16.275Z,100656.66
2022-12-11T09:10:27.789Z,100661.69
2022-12-11T09:12:58.501Z,100660.78
2022-12-11T09:15:45.180Z,100669.41
2022-12-11T09:18:16.701Z,100667.66
2022-12-11T09:20:49.216Z,100665.97
2022-12-11T09:23:21.017Z,100667.66
2022-12-11T09:26:11.516Z,100665.00
2022-12-11T09:28:46.606Z,100667.41
2022-12-11T09:31:19.954Z,100665.53
2022-12-11T09:33:52.133Z,100673.97
2022-12-11T09:36:22.426Z,100671.25
2022-12-11T09:38:51.289Z,100672.91
2022-12-11T09:41:41.444Z,100672.94
2022-12-11T09:44:41.437Z,100678.81
2022-12-11T09:47:30.266Z,100677.97
2022-12-11T09:50:06.588Z,100681.28
2022-12-11T09:52:42.341Z,100680.34
2022-12-11T09:55:18.169Z,100683.66
2022-12-11T09:57:56.987Z,100684.34
2022-12-11T10:00:32.359Z,100673.84
2022-12-11T10:03:45.022Z,100673.63
2022-12-11T10:06:23.956Z,100671.84
2022-12-11T10:09:05.137Z,100675.13
2022-12-11T10:11:56.464Z,100677.53
2022-12-11T10:14:41.695Z,100682.72
2022-12-11T10:17:17.714Z,100685.16
2022-12-11T10:19:49.965Z,100681.09
2022-12-11T10:22:24.397Z,100677.19
2022-12-11T10:25:14.496Z,100679.31
2022-12-11T10:27:47.302Z,100678.13
2022-12-11T10:30:23.930Z,100682.28
2022-12-11T10:32:58.647Z,100681.13
2022-12-11T10:35:36.667Z,100676.81
2022-12-11T10:38:16.250Z,100680.06
2022-12-11T10:40:56.924Z,100675.59
2022-12-11T10:43:37.646Z,100671.88
2022-12-11T10:46:18.047Z,100673.28
2022-12-11T10:48:54.231Z,100675.38
2022-12-11T10:51:36.294Z,100673.22
2022-12-11T10:54:08.526Z,100672.00
2022-12-11T10:56:40.326Z,100678.72
2022-12-11T10:59:08.812Z,100673.09
2022-12-11T11:01:38.236Z,100673.81
2022-12-11T11:04:17.252Z,100668.56
2022-12-11T11:06:52.134Z,100663.00
2022-12-11T11:09:37.652Z,100668.47
2022-12-11T11:12:20.815Z,100670.22
2022-12-11T11:15:27.164Z,100656.75
2022-12-11T11:18:00.073Z,100655.06
2022-12-11T11:20:31.793Z,100653.84
2022-12-11T11:23:17.479Z,100654.19
2022-12-11T11:25:54.354Z,100650.31
2022-12-11T11:28:29.686Z,100646.41
2022-12-11T11:31:05.831Z,100640.28
2022-12-11T11:33:54.917Z,100636.44
2022-12-11T11:36:26.874Z,100641.97
2022-12-11T11:39:29.563Z,100647.63
2022-12-11T11:42:06.325Z,100642.38
2022-12-11T11:44:42.922Z,100645.53
2022-12-11T11:47:32.168Z,100641.13
2022-12-11T11:50:26.503Z,100646.28
2022-12-11T11:53:13.662Z,100644.22
2022-12-11T11:55:59.117Z,100629.63
2022-12-11T11:58:44.388Z,100629.50
2022-12-11T12:02:07.752Z,100624.63
2022-12-11T12:05:14.171Z,100625.50
2022-12-11T12:08:07.712Z,100623.59
2022-12-11T12:10:50.126Z,100623.34
2022-12-11T12:13:49.161Z,100617.16
2022-12-11T12:16:52.278Z,100616.13
2022-12-11T12:19:30.236Z,100617.69
2022-12-11T12:22:14.592Z,100612.47
2022-12-11T12:24:56.361Z,100602.94
2022-12-11T12:27:52.530Z,100604.06
2022-12-11T12:30:23.832Z,100603.31
2022-12-11T12:33:13.054Z,100607.81
2022-12-11T12:35:57.469Z,100596.31
2022-12-11T12:38:41.792Z,100588.72
2022-12-11T12:41:22.849Z,100577.19
2022-12-11T12:44:26.385Z,100580.03
2022-12-11T12:47:07.289Z,100576.13
2022-12-11T12:49:42.778Z,100579.47
2022-12-11T12:52:18.124Z,100580.59
2022-12-11T12:55:17.127Z,100574.97
2022-12-11T12:57:51.358Z,100575.69
2022-12-11T13:00:36.454Z,100573.72
2022-12-11T13:03:15.662Z,100573.91
2022-12-11T13:06:00.145Z,100576.59
2022-12-11T13:08:36.384Z,100575.63
2022-12-11T13:11:09.338Z,100582.69
2022-12-11T13:13:44.514Z,100586.59
2022-12-11T13:16:36.091Z,100580.47
2022-12-11T13:19:19.756Z,100595.34
2022-12-11T13:21:58.557Z,100596.31
2022-12-11T13:24:33.953Z,100598.59
2022-12-11T13:27:12.754Z,100603.59
2022-12-11T13:29:44.468Z,100604.59
2022-12-11T13:32:33.520Z,100598.84
2022-12-11T13:35:21.669Z,100606.75
2022-12-11T13:38:02.349Z,100607.28
2022-12-11T13:40:44.595Z,100601.88
2022-12-11T13:43:22.264Z,100596.00
2022-12-11T13:45:57.358Z,100601.81
2022-12-11T13:48:37.928Z,100602.59
2022-12-11T13:51:08.248Z,100600.72
2022-12-11T13:53:37.986Z,100604.97
2022-12-11T13:56:09.376Z,100605.34
2022-12-11T13:58:40.771Z,100604.44
2022-12-11T14:01:23.788Z,100605.88
2022-12-11T14:03:57.075Z,100610.59
2022-12-11T14:06:37.437Z,100602.78
2022-12-11T14:09:09.803Z,100600.94
2022-12-11T14:11:43.735Z,100598.38
2022-12-11T14:14:22.030Z,100602.41
2022-12-11T14:16:54.681Z,100597.41
2022-12-11T14:19:48.325Z,100596.75
2022-12-11T14:22:23.889Z,100600.94
2022-12-11T14:24:55.730Z,100601.63
2022-12-11T14:27:27.985Z,100610.63
2022-12-11T14:29:58.220Z,100604.88
2022-12-11T14:32:40.538Z,100603.22
2022-12-11T14:35:25.823Z,100605.22
2022-12-11T14:38:15.791Z,100606.09
2022-12-11T14:41:02.187Z,100608.88
2022-12-11T14:43:37.352Z,100620.88
2022-12-11T14:46:17.140Z,100617.44
2022-12-11T14:49:01.041Z,100612.19
2022-12-11T14:51:31.412Z,100609.56
2022-12-11T14:54:03.187Z,100609.66
2022-12-11T14:56:33.201Z,100614.31
2022-12-11T14:59:04.424Z,100611.03
2022-12-11T15:01:35.348Z,100610.28
2022-12-11T15:04:21.950Z,100606.03
2022-12-11T15:06:57.080Z,100605.19
2022-12-11T15:09:30.043Z,100601.88
2022-12-11T15:12:14.223Z,100609.78
2022-12-11T15:14:55.518Z,100615.66
2022-12-11T15:17:26.688Z,100607.94
2022-12-11T15:20:03.676Z,100611.47
2022-12-11T15:22:34.328Z,100610.38
2022-12-11T15:25:03.871Z,100610.22
2022-12-11T15:27:35.989Z,100612.72
2022-12-11T15:30:16.493Z,100613.47
2022-12-11T15:32:45.084Z,100609.97
2022-12-11T15:35:26.487Z,100608.22
2022-12-11T15:37:56.636Z,100616.69
2022-12-11T15:40:26.610Z,100616.59
2022-12-11T15:42:57.206Z,100616.59
2022-12-11T15:45:29.404Z,100614.91
2022-12-11T15:47:59.840Z,100619.25
2022-12-11T15:50:31.712Z,100617.59
2022-12-11T15:53:00.358Z,100615.84
2022-12-11T15:55:35.319Z,100611.56
2022-12-11T15:58:07.331Z,100614.22
2022-12-11T16:00:37.337Z,100613.41
2022-12-11T16:03:07.949Z,100605.72
2022-12-11T16:05:40.077Z,100610.91
2022-12-11T16:08:15.509Z,100617.16
2022-12-11T16:10:48.677Z,100620.59
2022-12-11T16:13:18.658Z,100623.22
2022-12-11T16:15:49.660Z,100623.13
2022-12-11T16:18:32.050Z,100619.78
2022-12-11T16:21:07.489Z,100625.03
2022-12-11T16:23:45.076Z,100629.31
2022-12-11T16:26:16.247Z,100623.22
2022-12-11T16:29:11.389Z,100627.53
2022-12-11T16:31:53.567Z,100629.09
2022-12-11T16:34:27.227Z,100621.31
2022-12-11T16:37:01.658Z,100619.59
2022-12-11T16:39:33.193Z,100616.06
2022-12-11T16:42:02.060Z,100618.50
2022-12-11T16:48:19.424Z,100609.38
2022-12-11T16:50:56.574Z,100610.28
2022-12-11T16:53:28.174Z,100609.50
2022-12-11T16:56:08.179Z,100615.50
2022-12-11T16:58:41.452Z,100619.94
2022-12-11T17:01:13.801Z,100616.34
2022-12-11T17:03:47.845Z,100614.66
2022-12-11T17:06:19.272Z,100621.59
2022-12-11T17:09:15.355Z,100615.56
2022-12-11T17:11:46.324Z,100611.25
2022-12-11T17:14:20.869Z,100619.00
2022-12-11T17:17:01.237Z,100612.88
2022-12-11T17:20:07.164Z,100618.94
2022-12-11T17:22:43.346Z,100623.34
2022-12-11T17:25:22.744Z,100620.69
2022-12-11T17:27:57.527Z,100622.50
2022-12-11T17:30:27.325Z,100619.94
2022-12-11T17:33:06.264Z,100628.56
2022-12-11T17:35:37.204Z,100625.13
2022-12-11T17:38:06.914Z,100626.78
2022-12-11T17:40:50.474Z,100626.72
2022-12-11T17:43:20.290Z,100623.06
2022-12-11T17:45:55.795Z,100625.94
2022-12-11T17:48:38.817Z,100622.59
2022-12-11T17:51:25.300Z,100626.81
2022-12-11T17:53:55.639Z,100628.63
2022-12-11T17:56:26.665Z,100629.47
2022-12-11T17:58:55.904Z,100629.31
2022-12-11T18:01:25.770Z,100624.13
2022-12-11T18:03:54.783Z,100620.78
2022-12-11T18:06:32.551Z,100624.19
2022-12-11T18:09:01.581Z,100614.75
2022-12-11T18:11:36.154Z,100628.63
2022-12-11T18:14:06.285Z,100619.31
2022-12-11T18:16:38.350Z,100622.59
2022-12-11T18:19:32.231Z,100614.97
2022-12-11T18:22:01.051Z,100618.41
2022-12-11T18:27:21.268Z,100615.75
2022-12-11T18:29:57.180Z,100617.50
2022-12-11T18:32:25.850Z,100621.06
2022-12-11T18:35:09.329Z,100611.56
2022-12-11T18:37:39.695Z,100611.41
2022-12-11T18:40:16.659Z,100616.75
2022-12-11T18:42:51.127Z,100616.88
2022-12-11T18:45:22.967Z,100613.44
2022-12-11T18:47:53.286Z,100608.34
2022-12-11T18:50:22.959Z,100610.09
2022-12-11T18:52:55.489Z,100605.75
2022-12-11T18:55:27.196Z,100606.59
2022-12-11T18:58:02.347Z,100611.69
2022-12-11T19:00:31.265Z,100615.22
2022-12-11T19:03:01.044Z,100614.28
2022-12-11T19:05:31.037Z,100601.31
2022-12-11T19:08:02.106Z,100605.69
2022-12-11T19:10:35.019Z,100608.19
2022-12-11T19:13:05.506Z,100606.59
2022-12-11T19:15:41.908Z,100615.28
2022-12-11T19:18:15.315Z,100615.28
2022-12-11T19:20:57.656Z,100612.72
2022-12-11T19:23:33.438Z,100614.44
2022-12-11T19:26:12.421Z,100612.69
2022-12-11T19:29:00.729Z,100610.19
2022-12-11T19:31:43.865Z,100607.53
2022-12-11T19:34:16.579Z,100608.56
2022-12-11T19:36:48.740Z,100602.47
2022-12-11T19:39:29.426Z,100604.16
2022-12-11T19:42:15.145Z,100608.34
2022-12-11T19:44:47.947Z,100603.31
2022-12-11T19:47:23.168Z,100599.84
2022-12-11T19:50:11.268Z,100602.41
2022-12-11T19:52:52.946Z,100603.25
2022-12-11T19:55:47.858Z,100593.00
2022-12-11T19:58:20.608Z,100601.63
2022-12-11T20:00:54.874Z,100599.00
2022-12-11T20:03:39.907Z,100601.72
2022-12-11T20:06:16.376Z,100605.09
2022-12-11T20:08:47.329Z,100592.97
2022-12-11T20:11:21.128Z,100595.66
2022-12-11T20:13:56.885Z,100593.91
2022-12-11T20:17:09.253Z,100596.44
2022-12-11T20:19:40.199Z,100599.19
2022-12-11T20:22:24.367Z,100593.13
2022-12-11T20:24:55.470Z,100598.19
2022-12-11T20:27:31.095Z,100590.41
2022-12-11T20:30:20.089Z,100593.22
2022-12-11T20:32:59.789Z,100593.13
2022-12-11T20:35:33.697Z,100597.50
2022-12-11T20:38:25.097Z,100598.41
2022-12-11T20:40:56.029Z,100594.81
2022-12-11T20:43:24.750Z,100591.41
2022-12-11T20:46:10.048Z,100584.63
2022-12-11T20:48:44.089Z,100591.53
2022-12-11T20:51:20.941Z,100591.53
2022-12-11T20:53:58.126Z,100584.75
2022-12-11T20:56:29.022Z,100595.91
2022-12-11T20:58:59.354Z,100606.38
2022-12-11T21:01:32.870Z,100589.09
2022-12-11T21:04:06.999Z,100596.91
2022-12-11T21:06:42.542Z,100590.03
2022-12-11T21:09:14.622Z,100588.34
2022-12-11T21:11:45.214Z,100592.63
2022-12-11T21:14:15.991Z,100596.03
2022-12-11T21:16:51.667Z,100602.97
2022-12-11T21:19:23.875Z,100593.63
2022-12-11T21:21:53.900Z,100602.16
2022-12-11T21:24:27.670Z,100597.88
2022-12-11T21:26:59.340Z,100598.94
2022-12-11T21:29:36.435Z,100594.59
2022-12-11T21:32:05.997Z,100600.66
2022-12-11T21:34:38.085Z,100608.38
2022-12-11T21:37:17.783Z,100598.81
2022-12-11T21:39:47.240Z,100602.16
2022-12-11T21:42:16.626Z,100610.13
2022-12-11T21:47:34.819Z,100607.72
2022-12-11T21:50:06.012Z,100609.41
2022-12-11T21:52:49.089Z,100602.53
2022-12-11T21:55:23.794Z,100608.66
2022-12-11T21:57:52.642Z,100596.84
2022-12-11T22:00:22.786Z,100599.66
2022-12-11T22:02:52.327Z,100600.56
2022-12-11T22:05:32.599Z,100589.34
2022-12-11T22:08:02.613Z,100590.88
2022-12-11T22:10:32.328Z,100596.06
2022-12-11T22:13:01.219Z,100599.41
2022-12-11T22:15:30.046Z,100594.06
2022-12-11T22:17:58.954Z,100592.31
2022-12-11T22:20:29.726Z,100595.00
2022-12-11T22:23:00.203Z,100604.59
2022-12-11T22:25:32.576Z,100602.03
2022-12-11T22:28:01.398Z,100595.16
2022-12-11T22:30:32.272Z,100603.84
2022-12-11T22:33:11.940Z,100603.00
2022-12-11T22:35:56.421Z,100597.75
2022-12-11T22:38:33.986Z,100600.25
2022-12-11T22:41:05.217Z,100599.34
2022-12-11T22:43:40.087Z,100602.00
2022-12-11T22:46:10.208Z,100607.28
2022-12-11T22:48:41.147Z,100597.81
2022-12-11T22:51:10.115Z,100592.78
2022-12-11T22:53:41.607Z,100597.19
2022-12-11T22:56:12.595Z,100596.44
2022-12-11T22:58:43.998Z,100600.16
2022-12-11T23:01:17.885Z,100600.16
2022-12-11T23:03:47.200Z,100605.28
2022-12-11T23:06:23.949Z,100597.56
2022-12-11T23:09:02.414Z,100598.41
2022-12-11T23:11:36.571Z,100600.09
2022-12-11T23:14:10.680Z,100603.59
2022-12-11T23:16:43.444Z,100594.91
2022-12-11T23:19:12.397Z,100601.91
2022-12-11T23:21:43.719Z,100601.91
2022-12-11T23:24:14.226Z,100597.56
2022-12-11T23:26:44.417Z,100611.31
2022-12-11T23:29:14.238Z,100608.63
2022-12-11T23:31:51.183Z,100600.84
2022-12-11T23:34:27.056Z,100604.38
2022-12-11T23:37:05.948Z,100596.50
2022-12-11T23:39:37.667Z,100599.03
2022-12-11T23:42:06.678Z,100597.34
2022-12-11T23:44:35.335Z,100590.31
2022-12-11T23:47:04.016Z,100586.88
2022-12-11T23:49:34.981Z,100586.72
2022-12-11T23:52:03.895Z,100595.44
2022-12-11T23:54:34.507Z,100591.91
2022-12-11T23:57:06.505Z,100589.22
2022-12-11T23:59:35.506Z,100590.03
